sensor_id;sensor_type;location;lat;lon;timestamp;temperature;humidity
52159;DHT22;38145;53.182;6.284;2022-12-18T00:01:59;-3.30;99.90
52159;DHT22;38145;53.182;6.284;2022-12-18T00:04:27;-3.30;99.90
52159;DHT22;38145;53.182;6.284;2022-12-18T00:06:55;-3.20;99.90
52159;DHT22;38145;53.182;6.284;2022-12-18T00:09:22;-3.20;99.90
52159;DHT22;38145;53.182;6.284;2022-12-18T00:11:49;-3.30;99.90
52159;DHT22;38145;53.182;6.284;2022-12-18T00:14:15;-3.30;99.90
52159;DHT22;38145;53.182;6.284;2022-12-18T00:16:43;-3.30;99.90
52159;DHT22;38145;53.182;6.284;2022-12-18T00:19:10;-3.30;99.90
52159;DHT22;38145;53.182;6.284;2022-12-18T00:21:37;-3.30;99.90
52159;DHT22;38145;53.182;6.284;2022-12-18T00:24:03;-3.40;99.90
52159;DHT22;38145;53.182;6.284;2022-12-18T00:26:30;-3.40;99.90
52159;DHT22;38145;53.182;6.284;2022-12-18T00:28:58;-3.40;99.90
52159;DHT22;38145;53.182;6.284;2022-12-18T00:31:27;-3.50;99.90
52159;DHT22;38145;53.182;6.284;2022-12-18T00:33:54;-3.40;99.90
52159;DHT22;38145;53.182;6.284;2022-12-18T00:36:23;-3.30;99.90
52159;DHT22;38145;53.182;6.284;2022-12-18T00:38:49;-3.50;99.90
52159;DHT22;38145;53.182;6.284;2022-12-18T00:41:15;-3.50;99.90
52159;DHT22;38145;53.182;6.284;2022-12-18T00:44:02;-3.50;99.90
52159;DHT22;38145;53.182;6.284;2022-12-18T00:46:28;-3.60;99.90
52159;DHT22;38145;53.182;6.284;2022-12-18T00:48:54;-3.50;99.90
52159;DHT22;38145;53.182;6.284;2022-12-18T00:51:20;-3.60;99.90
52159;DHT22;38145;53.182;6.284;2022-12-18T00:53:47;-3.60;99.90
52159;DHT22;38145;53.182;6.284;2022-12-18T00:56:12;-3.60;99.90
52159;DHT22;38145;53.182;6.284;2022-12-18T00:58:39;-3.70;99.90
52159;DHT22;38145;53.182;6.284;2022-12-18T01:01:05;-3.70;99.90
52159;DHT22;38145;53.182;6.284;2022-12-18T01:03:31;-3.70;99.90
52159;DHT22;38145;53.182;6.284;2022-12-18T01:05:57;-3.60;99.90
52159;DHT22;38145;53.182;6.284;2022-12-18T01:08:23;-3.80;99.90
52159;DHT22;38145;53.182;6.284;2022-12-18T01:10:51;-3.60;99.90
52159;DHT22;38145;53.182;6.284;2022-12-18T01:13:18;-3.60;99.90
52159;DHT22;38145;53.182;6.284;2022-12-18T01:15:49;-3.70;99.90
52159;DHT22;38145;53.182;6.284;2022-12-18T01:18:16;-3.70;99.90
52159;DHT22;38145;53.182;6.284;2022-12-18T01:20:44;-3.70;99.90
52159;DHT22;38145;53.182;6.284;2022-12-18T01:23:10;-3.70;99.90
52159;DHT22;38145;53.182;6.284;2022-12-18T01:25:36;-3.80;99.90
52159;DHT22;38145;53.182;6.284;2022-12-18T01:28:03;-3.70;99.90
52159;DHT22;38145;53.182;6.284;2022-12-18T01:30:29;-3.80;99.90
52159;DHT22;38145;53.182;6.284;2022-12-18T01:32:55;-3.70;99.90
52159;DHT22;38145;53.182;6.284;2022-12-18T01:35:21;-3.70;99.90
52159;DHT22;38145;53.182;6.284;2022-12-18T01:37:49;-3.90;99.90
52159;DHT22;38145;53.182;6.284;2022-12-18T01:40:20;-3.80;99.90
52159;DHT22;38145;53.182;6.284;2022-12-18T01:42:53;-3.90;99.90
52159;DHT22;38145;53.182;6.284;2022-12-18T01:45:26;-3.90;99.90
52159;DHT22;38145;53.182;6.284;2022-12-18T01:47:59;-3.90;99.90
52159;DHT22;38145;53.182;6.284;2022-12-18T01:50:39;-3.90;99.90
52159;DHT22;38145;53.182;6.284;2022-12-18T01:53:07;-3.90;99.90
52159;DHT22;38145;53.182;6.284;2022-12-18T01:55:38;-3.90;99.90
52159;DHT22;38145;53.182;6.284;2022-12-18T01:58:08;-3.90;99.90
52159;DHT22;38145;53.182;6.284;2022-12-18T02:00:35;-3.80;99.90
52159;DHT22;38145;53.182;6.284;2022-12-18T02:03:01;-4.00;99.90
52159;DHT22;38145;53.182;6.284;2022-12-18T02:13:00;-4.00;99.90
52159;DHT22;38145;53.182;6.284;2022-12-18T02:15:41;-4.10;99.90
52159;DHT22;38145;53.182;6.284;2022-12-18T02:18:19;-4.00;99.90
52159;DHT22;38145;53.182;6.284;2022-12-18T02:20:48;-4.00;99.90
52159;DHT22;38145;53.182;6.284;2022-12-18T02:23:24;-4.00;99.90
52159;DHT22;38145;53.182;6.284;2022-12-18T02:26:01;-4.10;99.90
52159;DHT22;38145;53.182;6.284;2022-12-18T02:28:30;-4.20;99.90
52159;DHT22;38145;53.182;6.284;2022-12-18T02:30:58;-4.10;97.60
52159;DHT22;38145;53.182;6.284;2022-12-18T02:33:27;-4.20;79.10
52159;DHT22;38145;53.182;6.284;2022-12-18T02:35:54;-4.30;55.10
52159;DHT22;38145;53.182;6.284;2022-12-18T02:38:21;-4.40;38.10
52159;DHT22;38145;53.182;6.284;2022-12-18T02:40:47;-4.30;22.40
52159;DHT22;38145;53.182;6.284;2022-12-18T02:43:14;-4.40;1.60
52159;DHT22;38145;53.182;6.284;2022-12-18T02:45:50;-4.20;1.00
52159;DHT22;38145;53.182;6.284;2022-12-18T02:48:18;-4.40;1.00
52159;DHT22;38145;53.182;6.284;2022-12-18T02:50:48;-4.50;1.00
52159;DHT22;38145;53.182;6.284;2022-12-18T02:53:26;-4.30;1.00
52159;DHT22;38145;53.182;6.284;2022-12-18T03:00:58;-4.50;1.00
52159;DHT22;38145;53.182;6.284;2022-12-18T03:03:27;-4.30;1.00
52159;DHT22;38145;53.182;6.284;2022-12-18T03:05:57;-4.60;1.00
52159;DHT22;38145;53.182;6.284;2022-12-18T03:08:28;-4.00;1.00
52159;DHT22;38145;53.182;6.284;2022-12-18T03:10:59;-4.70;1.00
52159;DHT22;38145;53.182;6.284;2022-12-18T03:13:35;-4.70;1.00
52159;DHT22;38145;53.182;6.284;2022-12-18T03:16:02;-4.70;1.00
52159;DHT22;38145;53.182;6.284;2022-12-18T03:18:30;-4.70;99.90
52159;DHT22;38145;53.182;6.284;2022-12-18T03:20:58;-4.70;99.90
52159;DHT22;38145;53.182;6.284;2022-12-18T03:23:27;-4.80;99.90
52159;DHT22;38145;53.182;6.284;2022-12-18T03:25:54;-4.60;99.90
52159;DHT22;38145;53.182;6.284;2022-12-18T03:28:22;-4.60;99.90
52159;DHT22;38145;53.182;6.284;2022-12-18T03:30:49;-4.40;99.90
52159;DHT22;38145;53.182;6.284;2022-12-18T03:33:19;-4.30;99.90
52159;DHT22;38145;53.182;6.284;2022-12-18T03:35:45;-4.90;99.90
52159;DHT22;38145;53.182;6.284;2022-12-18T03:38:11;-3.90;99.90
52159;DHT22;38145;53.182;6.284;2022-12-18T03:43:04;-4.10;99.90
52159;DHT22;38145;53.182;6.284;2022-12-18T03:45:34;-4.60;99.90
52159;DHT22;38145;53.182;6.284;2022-12-18T03:48:03;-4.80;99.90
52159;DHT22;38145;53.182;6.284;2022-12-18T03:50:33;-4.90;99.90
52159;DHT22;38145;53.182;6.284;2022-12-18T03:55:33;-5.00;99.90
52159;DHT22;38145;53.182;6.284;2022-12-18T03:57:59;-4.60;99.90
52159;DHT22;38145;53.182;6.284;2022-12-18T04:00:26;-4.20;97.00
52159;DHT22;38145;53.182;6.284;2022-12-18T04:02:54;-4.60;26.50
52159;DHT22;38145;53.182;6.284;2022-12-18T04:05:20;-5.20;5.40
52159;DHT22;38145;53.182;6.284;2022-12-18T04:07:48;-5.00;1.00
52159;DHT22;38145;53.182;6.284;2022-12-18T04:10:14;-4.20;1.00
52159;DHT22;38145;53.182;6.284;2022-12-18T04:12:41;-5.00;1.00
52159;DHT22;38145;53.182;6.284;2022-12-18T04:15:07;-4.20;1.00
52159;DHT22;38145;53.182;6.284;2022-12-18T04:17:32;-5.20;1.00
52159;DHT22;38145;53.182;6.284;2022-12-18T04:19:58;-5.20;1.00
52159;DHT22;38145;53.182;6.284;2022-12-18T04:22:24;-5.00;1.00
52159;DHT22;38145;53.182;6.284;2022-12-18T04:24:49;-4.90;1.00
52159;DHT22;38145;53.182;6.284;2022-12-18T04:27:15;-4.60;1.00
52159;DHT22;38145;53.182;6.284;2022-12-18T04:29:41;-4.40;1.00
52159;DHT22;38145;53.182;6.284;2022-12-18T04:32:07;-4.70;1.00
52159;DHT22;38145;53.182;6.284;2022-12-18T04:34:32;-5.20;1.00
52159;DHT22;38145;53.182;6.284;2022-12-18T04:36:58;-4.70;1.00
52159;DHT22;38145;53.182;6.284;2022-12-18T04:39:24;-5.20;99.90
52159;DHT22;38145;53.182;6.284;2022-12-18T04:41:49;-4.80;99.90
52159;DHT22;38145;53.182;6.284;2022-12-18T04:44:15;-4.50;99.90
52159;DHT22;38145;53.182;6.284;2022-12-18T04:46:41;-5.30;99.90
52159;DHT22;38145;53.182;6.284;2022-12-18T04:49:06;-5.40;99.90
52159;DHT22;38145;53.182;6.284;2022-12-18T04:51:32;-5.50;99.90
52159;DHT22;38145;53.182;6.284;2022-12-18T04:53:58;-5.00;99.90
52159;DHT22;38145;53.182;6.284;2022-12-18T04:56:23;-4.60;99.90
52159;DHT22;38145;53.182;6.284;2022-12-18T04:58:49;-5.00;99.90
52159;DHT22;38145;53.182;6.284;2022-12-18T05:01:15;-4.60;99.90
52159;DHT22;38145;53.182;6.284;2022-12-18T05:03:41;-5.60;99.90
52159;DHT22;38145;53.182;6.284;2022-12-18T05:06:07;-5.30;94.90
52159;DHT22;38145;53.182;6.284;2022-12-18T05:08:33;-4.90;99.90
52159;DHT22;38145;53.182;6.284;2022-12-18T05:10:59;-5.50;99.90
52159;DHT22;38145;53.182;6.284;2022-12-18T05:13:25;-5.10;79.50
52159;DHT22;38145;53.182;6.284;2022-12-18T05:15:51;-5.10;91.20
52159;DHT22;38145;53.182;6.284;2022-12-18T05:18:17;-5.60;91.20
52159;DHT22;38145;53.182;6.284;2022-12-18T05:20:43;-5.70;51.30
52159;DHT22;38145;53.182;6.284;2022-12-18T05:23:08;-5.50;16.60
52159;DHT22;38145;53.182;6.284;2022-12-18T05:25:34;-5.70;1.00
52159;DHT22;38145;53.182;6.284;2022-12-18T05:28:00;-5.00;1.00
52159;DHT22;38145;53.182;6.284;2022-12-18T05:30:25;-5.20;1.00
52159;DHT22;38145;53.182;6.284;2022-12-18T05:32:51;-5.70;1.00
52159;DHT22;38145;53.182;6.284;2022-12-18T05:35:17;-5.80;1.00
52159;DHT22;38145;53.182;6.284;2022-12-18T05:37:42;-5.80;1.00
52159;DHT22;38145;53.182;6.284;2022-12-18T05:40:08;-5.60;1.00
52159;DHT22;38145;53.182;6.284;2022-12-18T05:42:34;-5.70;1.00
52159;DHT22;38145;53.182;6.284;2022-12-18T05:44:59;-5.60;1.00
52159;DHT22;38145;53.182;6.284;2022-12-18T05:47:26;-5.60;1.00
52159;DHT22;38145;53.182;6.284;2022-12-18T05:49:52;-5.80;1.00
52159;DHT22;38145;53.182;6.284;2022-12-18T05:52:17;-5.90;1.00
52159;DHT22;38145;53.182;6.284;2022-12-18T05:54:43;-5.50;1.00
52159;DHT22;38145;53.182;6.284;2022-12-18T05:57:08;-4.70;1.00
52159;DHT22;38145;53.182;6.284;2022-12-18T05:59:34;-4.90;1.00
52159;DHT22;38145;53.182;6.284;2022-12-18T06:02:00;-5.20;99.90
52159;DHT22;38145;53.182;6.284;2022-12-18T06:04:26;-6.00;99.90
52159;DHT22;38145;53.182;6.284;2022-12-18T06:06:52;-4.80;99.90
52159;DHT22;38145;53.182;6.284;2022-12-18T06:09:18;-5.70;99.90
52159;DHT22;38145;53.182;6.284;2022-12-18T06:11:44;-5.20;99.90
52159;DHT22;38145;53.182;6.284;2022-12-18T06:14:09;-4.80;99.90
52159;DHT22;38145;53.182;6.284;2022-12-18T06:16:35;-5.70;99.90
52159;DHT22;38145;53.182;6.284;2022-12-18T06:19:01;-5.30;99.90
52159;DHT22;38145;53.182;6.284;2022-12-18T06:21:28;-5.90;99.90
52159;DHT22;38145;53.182;6.284;2022-12-18T06:23:53;-6.00;99.90
52159;DHT22;38145;53.182;6.284;2022-12-18T06:26:19;-5.90;99.90
52159;DHT22;38145;53.182;6.284;2022-12-18T06:28:45;-6.00;99.90
52159;DHT22;38145;53.182;6.284;2022-12-18T06:31:10;-6.10;99.90
52159;DHT22;38145;53.182;6.284;2022-12-18T06:33:36;-5.30;99.90
52159;DHT22;38145;53.182;6.284;2022-12-18T06:36:09;-6.00;99.90
52159;DHT22;38145;53.182;6.284;2022-12-18T06:38:35;-6.30;99.90
52159;DHT22;38145;53.182;6.284;2022-12-18T06:41:09;-5.00;99.90
52159;DHT22;38145;53.182;6.284;2022-12-18T06:43:35;-6.20;99.90
52159;DHT22;38145;53.182;6.284;2022-12-18T06:46:01;-6.10;99.90
52159;DHT22;38145;53.182;6.284;2022-12-18T06:48:28;-6.30;99.90
52159;DHT22;38145;53.182;6.284;2022-12-18T06:50:54;-6.30;99.90
52159;DHT22;38145;53.182;6.284;2022-12-18T06:53:19;-5.50;99.90
52159;DHT22;38145;53.182;6.284;2022-12-18T06:55:45;-5.60;99.90
52159;DHT22;38145;53.182;6.284;2022-12-18T06:58:11;-6.00;99.90
52159;DHT22;38145;53.182;6.284;2022-12-18T07:00:36;-5.50;99.90
52159;DHT22;38145;53.182;6.284;2022-12-18T07:03:02;-6.00;99.90
52159;DHT22;38145;53.182;6.284;2022-12-18T07:05:27;-6.10;99.90
52159;DHT22;38145;53.182;6.284;2022-12-18T07:07:53;-6.20;99.90
52159;DHT22;38145;53.182;6.284;2022-12-18T07:10:19;-5.50;99.90
52159;DHT22;38145;53.182;6.284;2022-12-18T07:12:44;-6.40;99.90
52159;DHT22;38145;53.182;6.284;2022-12-18T07:15:10;-6.20;99.90
52159;DHT22;38145;53.182;6.284;2022-12-18T07:17:35;-6.10;99.90
52159;DHT22;38145;53.182;6.284;2022-12-18T07:20:01;-6.30;1.00
52159;DHT22;38145;53.182;6.284;2022-12-18T07:22:27;-6.30;1.00
52159;DHT22;38145;53.182;6.284;2022-12-18T07:24:53;-5.50;1.00
52159;DHT22;38145;53.182;6.284;2022-12-18T07:27:18;-6.20;1.00
52159;DHT22;38145;53.182;6.284;2022-12-18T07:29:44;-5.20;1.00
52159;DHT22;38145;53.182;6.284;2022-12-18T07:32:10;-6.10;1.00
52159;DHT22;38145;53.182;6.284;2022-12-18T07:34:35;-4.80;1.00
52159;DHT22;38145;53.182;6.284;2022-12-18T07:37:01;-6.20;1.00
52159;DHT22;38145;53.182;6.284;2022-12-18T07:39:26;-5.40;1.00
52159;DHT22;38145;53.182;6.284;2022-12-18T07:41:52;-5.90;1.00
52159;DHT22;38145;53.182;6.284;2022-12-18T07:44:38;-5.50;1.00
52159;DHT22;38145;53.182;6.284;2022-12-18T07:47:04;-6.10;1.00
52159;DHT22;38145;53.182;6.284;2022-12-18T07:49:30;-6.10;1.00
52159;DHT22;38145;53.182;6.284;2022-12-18T07:51:55;-5.90;1.00
52159;DHT22;38145;53.182;6.284;2022-12-18T07:54:22;-5.80;1.00
52159;DHT22;38145;53.182;6.284;2022-12-18T07:56:48;-6.00;1.00
52159;DHT22;38145;53.182;6.284;2022-12-18T07:59:13;-6.20;1.00
52159;DHT22;38145;53.182;6.284;2022-12-18T08:01:39;-6.00;1.00
52159;DHT22;38145;53.182;6.284;2022-12-18T08:04:05;-5.00;1.00
52159;DHT22;38145;53.182;6.284;2022-12-18T08:06:30;-5.60;1.00
52159;DHT22;38145;53.182;6.284;2022-12-18T08:08:56;-6.00;1.00
52159;DHT22;38145;53.182;6.284;2022-12-18T08:11:22;-5.40;1.00
52159;DHT22;38145;53.182;6.284;2022-12-18T08:13:48;-5.90;1.00
52159;DHT22;38145;53.182;6.284;2022-12-18T08:16:14;-5.30;1.00
52159;DHT22;38145;53.182;6.284;2022-12-18T08:18:40;-5.90;1.00
52159;DHT22;38145;53.182;6.284;2022-12-18T08:21:08;-5.80;1.00
52159;DHT22;38145;53.182;6.284;2022-12-18T08:23:34;-5.60;34.20
52159;DHT22;38145;53.182;6.284;2022-12-18T08:26:00;-5.50;50.50
52159;DHT22;38145;53.182;6.284;2022-12-18T08:28:26;-5.60;52.10
52159;DHT22;38145;53.182;6.284;2022-12-18T08:30:52;-5.50;56.80
52159;DHT22;38145;53.182;6.284;2022-12-18T08:33:17;-5.50;63.50
52159;DHT22;38145;53.182;6.284;2022-12-18T08:35:43;-5.50;63.00
52159;DHT22;38145;53.182;6.284;2022-12-18T08:38:09;-5.30;58.90
52159;DHT22;38145;53.182;6.284;2022-12-18T08:40:34;-5.40;39.80
52159;DHT22;38145;53.182;6.284;2022-12-18T08:43:00;-5.20;49.50
52159;DHT22;38145;53.182;6.284;2022-12-18T08:45:53;-4.80;24.10
52159;DHT22;38145;53.182;6.284;2022-12-18T08:48:19;-5.10;21.80
52159;DHT22;38145;53.182;6.284;2022-12-18T08:50:53;-5.30;29.00
52159;DHT22;38145;53.182;6.284;2022-12-18T08:53:18;-4.20;1.30
52159;DHT22;38145;53.182;6.284;2022-12-18T08:55:44;-5.00;17.00
52159;DHT22;38145;53.182;6.284;2022-12-18T08:58:10;-4.90;16.50
52159;DHT22;38145;53.182;6.284;2022-12-18T09:00:36;-4.60;25.50
52159;DHT22;38145;53.182;6.284;2022-12-18T09:03:01;-4.60;39.80
52159;DHT22;38145;53.182;6.284;2022-12-18T09:05:27;-4.80;46.30
52159;DHT22;38145;53.182;6.284;2022-12-18T09:07:53;-4.70;42.70
52159;DHT22;38145;53.182;6.284;2022-12-18T09:10:18;-4.60;11.50
52159;DHT22;38145;53.182;6.284;2022-12-18T09:12:44;-3.90;3.60
52159;DHT22;38145;53.182;6.284;2022-12-18T09:15:09;-4.50;1.00
52159;DHT22;38145;53.182;6.284;2022-12-18T09:17:35;-4.40;1.00
52159;DHT22;38145;53.182;6.284;2022-12-18T09:20:01;-4.30;1.00
52159;DHT22;38145;53.182;6.284;2022-12-18T09:22:26;-4.30;1.00
52159;DHT22;38145;53.182;6.284;2022-12-18T09:24:52;-4.20;1.00
52159;DHT22;38145;53.182;6.284;2022-12-18T09:27:18;-4.10;99.90
52159;DHT22;38145;53.182;6.284;2022-12-18T09:29:44;-4.00;99.90
52159;DHT22;38145;53.182;6.284;2022-12-18T09:32:09;-3.70;99.90
52159;DHT22;38145;53.182;6.284;2022-12-18T09:34:35;-3.70;99.90
52159;DHT22;38145;53.182;6.284;2022-12-18T09:37:01;-3.60;99.90
52159;DHT22;38145;53.182;6.284;2022-12-18T09:39:26;-3.60;99.90
52159;DHT22;38145;53.182;6.284;2022-12-18T09:41:53;-3.50;99.90
52159;DHT22;38145;53.182;6.284;2022-12-18T09:49:18;-3.30;30.50
52159;DHT22;38145;53.182;6.284;2022-12-18T09:51:50;-3.30;1.00
52159;DHT22;38145;53.182;6.284;2022-12-18T09:54:26;-3.20;99.90
52159;DHT22;38145;53.182;6.284;2022-12-18T09:56:54;-3.10;99.90
52159;DHT22;38145;53.182;6.284;2022-12-18T09:59:23;-3.20;99.90
52159;DHT22;38145;53.182;6.284;2022-12-18T10:01:50;-3.30;1.00
52159;DHT22;38145;53.182;6.284;2022-12-18T10:04:16;-3.40;1.00
52159;DHT22;38145;53.182;6.284;2022-12-18T10:11:37;-3.40;1.00
52159;DHT22;38145;53.182;6.284;2022-12-18T10:16:47;-3.30;99.90
52159;DHT22;38145;53.182;6.284;2022-12-18T10:21:56;-2.90;99.90
52159;DHT22;38145;53.182;6.284;2022-12-18T10:24:26;-2.80;99.90
52159;DHT22;38145;53.182;6.284;2022-12-18T10:27:15;-2.80;99.90
52159;DHT22;38145;53.182;6.284;2022-12-18T10:29:42;-2.80;99.90
52159;DHT22;38145;53.182;6.284;2022-12-18T10:32:09;-2.90;99.90
52159;DHT22;38145;53.182;6.284;2022-12-18T10:34:38;-2.90;99.90
52159;DHT22;38145;53.182;6.284;2022-12-18T10:37:04;-2.70;99.90
52159;DHT22;38145;53.182;6.284;2022-12-18T10:39:31;-2.90;99.90
52159;DHT22;38145;53.182;6.284;2022-12-18T10:42:10;-3.00;99.90
52159;DHT22;38145;53.182;6.284;2022-12-18T10:44:37;-3.00;99.90
52159;DHT22;38145;53.182;6.284;2022-12-18T10:47:03;-3.00;99.90
52159;DHT22;38145;53.182;6.284;2022-12-18T10:49:31;-3.00;99.90
52159;DHT22;38145;53.182;6.284;2022-12-18T10:52:14;-2.70;1.00
52159;DHT22;38145;53.182;6.284;2022-12-18T10:54:45;-3.00;1.00
52159;DHT22;38145;53.182;6.284;2022-12-18T10:57:30;-3.00;1.00
52159;DHT22;38145;53.182;6.284;2022-12-18T10:59:57;-3.00;1.00
52159;DHT22;38145;53.182;6.284;2022-12-18T11:02:37;-2.90;1.00
52159;DHT22;38145;53.182;6.284;2022-12-18T11:05:22;-3.00;1.00
52159;DHT22;38145;53.182;6.284;2022-12-18T11:07:49;-2.90;1.00
52159;DHT22;38145;53.182;6.284;2022-12-18T11:10:17;-3.00;50.50
52159;DHT22;38145;53.182;6.284;2022-12-18T11:12:43;-3.00;99.90
52159;DHT22;38145;53.182;6.284;2022-12-18T11:15:16;-3.00;99.90
52159;DHT22;38145;53.182;6.284;2022-12-18T11:17:44;-2.90;99.90
52159;DHT22;38145;53.182;6.284;2022-12-18T11:22:44;-2.90;99.90
52159;DHT22;38145;53.182;6.284;2022-12-18T11:25:19;-2.90;99.90
52159;DHT22;38145;53.182;6.284;2022-12-18T11:27:47;-2.90;99.90
52159;DHT22;38145;53.182;6.284;2022-12-18T11:32:40;-2.80;99.90
52159;DHT22;38145;53.182;6.284;2022-12-18T11:35:11;-2.80;99.90
52159;DHT22;38145;53.182;6.284;2022-12-18T11:37:40;-2.80;99.90
52159;DHT22;38145;53.182;6.284;2022-12-18T11:40:14;-2.80;99.90
52159;DHT22;38145;53.182;6.284;2022-12-18T11:42:54;-2.80;99.90
52159;DHT22;38145;53.182;6.284;2022-12-18T11:45:25;-2.70;1.00
52159;DHT22;38145;53.182;6.284;2022-12-18T11:47:54;-2.70;1.00
52159;DHT22;38145;53.182;6.284;2022-12-18T11:50:24;-2.70;1.00
52159;DHT22;38145;53.182;6.284;2022-12-18T11:52:51;-2.70;1.00
52159;DHT22;38145;53.182;6.284;2022-12-18T11:57:51;-2.60;99.90
52159;DHT22;38145;53.182;6.284;2022-12-18T12:00:21;-2.60;99.90
52159;DHT22;38145;53.182;6.284;2022-12-18T12:10:15;-2.50;1.00
52159;DHT22;38145;53.182;6.284;2022-12-18T12:15:22;-2.50;1.00
52159;DHT22;38145;53.182;6.284;2022-12-18T12:20:31;-2.50;1.00
52159;DHT22;38145;53.182;6.284;2022-12-18T12:23:06;-2.40;1.00
52159;DHT22;38145;53.182;6.284;2022-12-18T12:25:39;-2.40;1.00
52159;DHT22;38145;53.182;6.284;2022-12-18T12:28:15;-2.40;1.00
52159;DHT22;38145;53.182;6.284;2022-12-18T12:30:52;-2.40;99.90
52159;DHT22;38145;53.182;6.284;2022-12-18T12:33:26;-2.40;1.00
52159;DHT22;38145;53.182;6.284;2022-12-18T12:36:01;-2.40;1.00
52159;DHT22;38145;53.182;6.284;2022-12-18T12:38:37;-2.30;99.90
52159;DHT22;38145;53.182;6.284;2022-12-18T12:41:07;-2.30;99.90
52159;DHT22;38145;53.182;6.284;2022-12-18T12:43:55;-2.20;99.90
52159;DHT22;38145;53.182;6.284;2022-12-18T12:46:24;-2.20;99.90
52159;DHT22;38145;53.182;6.284;2022-12-18T12:48:54;-2.20;99.90
52159;DHT22;38145;53.182;6.284;2022-12-18T12:51:29;-2.20;99.90
52159;DHT22;38145;53.182;6.284;2022-12-18T12:53:57;-2.20;99.90
52159;DHT22;38145;53.182;6.284;2022-12-18T12:56:24;-2.20;99.90
52159;DHT22;38145;53.182;6.284;2022-12-18T12:58:55;-2.10;3.20
52159;DHT22;38145;53.182;6.284;2022-12-18T13:01:27;-2.10;51.70
52159;DHT22;38145;53.182;6.284;2022-12-18T13:06:27;-2.10;1.00
52159;DHT22;38145;53.182;6.284;2022-12-18T13:08:57;-2.10;1.00
52159;DHT22;38145;53.182;6.284;2022-12-18T13:11:37;-2.10;1.00
52159;DHT22;38145;53.182;6.284;2022-12-18T13:14:24;-2.10;1.00
52159;DHT22;38145;53.182;6.284;2022-12-18T13:16:51;-2.10;1.00
52159;DHT22;38145;53.182;6.284;2022-12-18T13:19:25;-2.00;99.90
52159;DHT22;38145;53.182;6.284;2022-12-18T13:21:53;-2.10;99.90
52159;DHT22;38145;53.182;6.284;2022-12-18T13:24:24;-2.10;99.90
52159;DHT22;38145;53.182;6.284;2022-12-18T13:26:53;-2.00;99.90
52159;DHT22;38145;53.182;6.284;2022-12-18T13:32:18;-2.00;99.90
52159;DHT22;38145;53.182;6.284;2022-12-18T13:34:46;-2.00;99.90
52159;DHT22;38145;53.182;6.284;2022-12-18T13:40:01;-2.00;99.90
52159;DHT22;38145;53.182;6.284;2022-12-18T13:48:02;-1.90;99.90
52159;DHT22;38145;53.182;6.284;2022-12-18T13:50:29;-1.90;99.90
52159;DHT22;38145;53.182;6.284;2022-12-18T13:52:57;-1.90;99.90
52159;DHT22;38145;53.182;6.284;2022-12-18T13:55:25;-1.90;99.90
52159;DHT22;38145;53.182;6.284;2022-12-18T13:58:02;-1.90;99.90
52159;DHT22;38145;53.182;6.284;2022-12-18T14:00:29;-1.90;68.00
52159;DHT22;38145;53.182;6.284;2022-12-18T14:02:57;-1.90;99.90
52159;DHT22;38145;53.182;6.284;2022-12-18T14:05:26;-1.90;99.90
52159;DHT22;38145;53.182;6.284;2022-12-18T14:08:00;-1.90;97.60
52159;DHT22;38145;53.182;6.284;2022-12-18T14:10:28;-1.90;99.50
52159;DHT22;38145;53.182;6.284;2022-12-18T14:12:56;-1.90;99.90
52159;DHT22;38145;53.182;6.284;2022-12-18T14:15:29;-1.90;99.90
52159;DHT22;38145;53.182;6.284;2022-12-18T14:18:07;-1.90;24.20
52159;DHT22;38145;53.182;6.284;2022-12-18T14:20:41;-1.90;1.00
52159;DHT22;38145;53.182;6.284;2022-12-18T14:23:27;-1.90;1.00
52159;DHT22;38145;53.182;6.284;2022-12-18T14:25:58;-1.90;1.00
52159;DHT22;38145;53.182;6.284;2022-12-18T14:28:27;-1.90;53.10
52159;DHT22;38145;53.182;6.284;2022-12-18T14:30:55;-1.90;1.00
52159;DHT22;38145;53.182;6.284;2022-12-18T14:33:25;-1.90;1.00
52159;DHT22;38145;53.182;6.284;2022-12-18T14:36:02;-1.90;1.00
52159;DHT22;38145;53.182;6.284;2022-12-18T14:43:33;-1.90;99.90
52159;DHT22;38145;53.182;6.284;2022-12-18T14:46:04;-1.90;1.00
52159;DHT22;38145;53.182;6.284;2022-12-18T14:48:36;-1.90;1.00
52159;DHT22;38145;53.182;6.284;2022-12-18T14:53:42;-1.90;1.00
52159;DHT22;38145;53.182;6.284;2022-12-18T14:56:17;-1.90;1.00
52159;DHT22;38145;53.182;6.284;2022-12-18T14:58:46;-1.90;1.00
52159;DHT22;38145;53.182;6.284;2022-12-18T15:01:19;-1.90;1.00
52159;DHT22;38145;53.182;6.284;2022-12-18T15:03:50;-2.00;1.00
52159;DHT22;38145;53.182;6.284;2022-12-18T15:06:29;-2.00;1.00
52159;DHT22;38145;53.182;6.284;2022-12-18T15:09:01;-1.90;1.00
52159;DHT22;38145;53.182;6.284;2022-12-18T15:11:29;-1.90;22.90
52159;DHT22;38145;53.182;6.284;2022-12-18T15:14:21;-1.90;1.00
52159;DHT22;38145;53.182;6.284;2022-12-18T15:16:50;-1.90;99.90
52159;DHT22;38145;53.182;6.284;2022-12-18T15:19:21;-1.90;99.90
52159;DHT22;38145;53.182;6.284;2022-12-18T15:21:50;-2.00;99.90
52159;DHT22;38145;53.182;6.284;2022-12-18T15:24:22;-1.90;99.90
52159;DHT22;38145;53.182;6.284;2022-12-18T15:26:53;-2.00;99.90
52159;DHT22;38145;53.182;6.284;2022-12-18T15:29:23;-2.00;99.90
52159;DHT22;38145;53.182;6.284;2022-12-18T15:32:00;-1.90;99.90
52159;DHT22;38145;53.182;6.284;2022-12-18T15:34:29;-2.00;99.90
52159;DHT22;38145;53.182;6.284;2022-12-18T15:36:57;-1.90;1.00
52159;DHT22;38145;53.182;6.284;2022-12-18T15:39:27;-1.90;99.90
52159;DHT22;38145;53.182;6.284;2022-12-18T15:41:55;-1.90;1.00
52159;DHT22;38145;53.182;6.284;2022-12-18T15:44:43;-2.00;1.00
52159;DHT22;38145;53.182;6.284;2022-12-18T15:47:12;-1.90;1.00
52159;DHT22;38145;53.182;6.284;2022-12-18T15:49:42;-1.90;1.00
52159;DHT22;38145;53.182;6.284;2022-12-18T15:52:11;-1.90;99.90
52159;DHT22;38145;53.182;6.284;2022-12-18T15:54:53;-1.90;99.90
52159;DHT22;38145;53.182;6.284;2022-12-18T15:57:44;-1.90;1.00
52159;DHT22;38145;53.182;6.284;2022-12-18T16:00:13;-1.90;1.00
52159;DHT22;38145;53.182;6.284;2022-12-18T16:02:44;-1.90;1.00
52159;DHT22;38145;53.182;6.284;2022-12-18T16:05:17;-1.90;1.00
52159;DHT22;38145;53.182;6.284;2022-12-18T16:07:48;-1.90;1.00
52159;DHT22;38145;53.182;6.284;2022-12-18T16:10:20;-1.90;1.00
52159;DHT22;38145;53.182;6.284;2022-12-18T16:12:51;-1.90;99.90
52159;DHT22;38145;53.182;6.284;2022-12-18T16:15:20;-1.90;99.90
52159;DHT22;38145;53.182;6.284;2022-12-18T16:17:51;-1.90;99.90
52159;DHT22;38145;53.182;6.284;2022-12-18T16:20:23;-1.90;1.00
52159;DHT22;38145;53.182;6.284;2022-12-18T16:22:54;-1.90;1.00
52159;DHT22;38145;53.182;6.284;2022-12-18T16:25:24;-1.90;1.00
52159;DHT22;38145;53.182;6.284;2022-12-18T16:27:55;-2.00;4.30
52159;DHT22;38145;53.182;6.284;2022-12-18T16:30:26;-2.00;99.90
52159;DHT22;38145;53.182;6.284;2022-12-18T16:32:57;-1.90;99.90
52159;DHT22;38145;53.182;6.284;2022-12-18T16:35:27;-1.90;99.90
52159;DHT22;38145;53.182;6.284;2022-12-18T16:37:59;-2.00;99.90
52159;DHT22;38145;53.182;6.284;2022-12-18T16:40:28;-2.00;99.90
52159;DHT22;38145;53.182;6.284;2022-12-18T16:43:21;-1.90;99.90
52159;DHT22;38145;53.182;6.284;2022-12-18T16:45:49;-1.90;99.90
52159;DHT22;38145;53.182;6.284;2022-12-18T16:48:19;-1.90;99.90
52159;DHT22;38145;53.182;6.284;2022-12-18T16:50:48;-1.90;99.90
52159;DHT22;38145;53.182;6.284;2022-12-18T16:53:17;-1.90;99.90
52159;DHT22;38145;53.182;6.284;2022-12-18T16:55:53;-1.90;31.10
52159;DHT22;38145;53.182;6.284;2022-12-18T16:58:23;-1.80;1.00
52159;DHT22;38145;53.182;6.284;2022-12-18T17:00:52;-1.80;16.30